Time;durP1;ratioP1;P1;durP2;ratioP2;P2;SDS_P1;SDS_P2;PMS_P1;PMS_P2;Temp;Humidity;BMP_temperature;BMP_pressure;BME280_temperature;BME280_humidity;BME280_pressure;Samples;Min_cycle;Max_cycle;Signal;HPM_P1;HPM_P2
2023/05/05 00:01:01;;;;;;;7.72;4.78;;;;;;;-146.18;100.00;67994.34;10046021;28;20062;-66
2023/05/05 00:05:57;;;;;;;6.15;4.00;;;;;;;-146.18;100.00;67994.34;10067502;28;20130;-67
2023/05/05 00:10:55;;;;;;;9.75;4.90;;;;;;;-146.18;100.00;67994.34;10056427;28;20058;-66
2023/05/05 00:15:52;;;;;;;6.53;4.35;;;;;;;-146.18;100.00;67994.34;10060549;28;20059;-70
2023/05/05 00:20:49;;;;;;;6.70;4.65;;;;;;;-146.18;100.00;67994.34;10038479;28;20922;-70
2023/05/05 00:25:46;;;;;;;5.60;4.20;;;;;;;-146.18;100.00;67994.34;10061536;28;20527;-70
2023/05/05 00:30:42;;;;;;;6.45;4.50;;;;;;;-146.18;100.00;67994.34;10066850;28;20051;-70
2023/05/05 00:35:39;;;;;;;8.40;4.15;;;;;;;-146.18;100.00;67994.34;10072271;28;20039;-69
2023/05/05 00:40:36;;;;;;;6.75;4.38;;;;;;;-146.18;100.00;67994.34;10064594;28;20058;-68
2023/05/05 00:45:35;;;;;;;6.00;4.22;;;;;;;-146.18;100.00;67994.34;10050391;28;20043;-68
2023/05/05 00:50:32;;;;;;;6.35;4.30;;;;;;;-146.18;100.00;67994.34;10030795;28;20641;-66
2023/05/05 00:55:30;;;;;;;6.15;4.30;;;;;;;-146.18;100.00;67994.34;10031207;28;20043;-69
2023/05/05 01:00:27;;;;;;;9.73;4.25;;;;;;;-146.18;100.00;67994.34;10056870;28;20502;-69
2023/05/05 01:05:31;;;;;;;7.68;4.45;;;;;;;-146.18;100.00;67994.34;10062743;28;20138;-68
2023/05/05 01:10:45;;;;;;;8.32;4.82;;;;;;;-146.18;100.00;67994.34;10025800;28;20043;-69
2023/05/05 01:16:13;;;;;;;9.05;5.00;;;;;;;-146.18;100.00;67994.34;10067533;28;20051;-68
2023/05/05 01:21:18;;;;;;;6.93;4.32;;;;;;;-146.18;100.00;67994.34;10059655;28;20134;-68
2023/05/05 01:26:42;;;;;;;8.18;4.50;;;;;;;-146.18;100.00;67994.34;10061527;28;20045;-68
2023/05/05 01:32:01;;;;;;;7.43;4.32;;;;;;;-146.18;100.00;67994.34;10047744;28;20391;-68
2023/05/05 01:37:07;;;;;;;10.45;5.80;;;;;;;-146.18;100.00;67994.34;10035272;28;20502;-70
2023/05/05 01:42:07;;;;;;;6.55;4.50;;;;;;;-146.18;100.00;67994.34;10062237;28;20057;-70
2023/05/05 01:47:05;;;;;;;8.18;4.22;;;;;;;-146.18;100.00;67994.34;10059020;28;20505;-68
2023/05/05 01:52:04;;;;;;;7.15;4.90;;;;;;;-146.18;100.00;67994.34;10063543;28;20072;-69
2023/05/05 01:57:06;;;;;;;9.82;4.55;;;;;;;-146.18;100.00;67994.34;10067594;28;20585;-69
2023/05/05 02:02:02;;;;;;;5.25;4.32;;;;;;;-146.18;100.00;67994.34;10062128;28;20048;-69
2023/05/05 02:07:01;;;;;;;6.95;4.25;;;;;;;-146.18;100.00;67994.34;10063826;28;20039;-69
2023/05/05 02:11:59;;;;;;;8.82;4.43;;;;;;;-146.18;100.00;67994.34;10058051;28;20068;-66
2023/05/05 02:16:57;;;;;;;6.82;4.70;;;;;;;-146.18;100.00;67994.34;10024139;28;20074;-67
2023/05/05 02:21:53;;;;;;;7.78;4.22;;;;;;;-146.18;100.00;67994.34;10027239;28;20074;-66
2023/05/05 02:26:52;;;;;;;8.07;4.15;;;;;;;-146.18;100.00;67994.34;10049338;28;20087;-68
2023/05/05 02:31:54;;;;;;;7.25;4.18;;;;;;;-146.18;100.00;67994.34;10064818;28;20047;-69
2023/05/05 02:36:54;;;;;;;8.25;5.22;;;;;;;-146.18;100.00;67994.34;10054170;28;20437;-69
2023/05/05 02:41:52;;;;;;;5.55;3.90;;;;;;;-146.18;100.00;67994.34;10027614;28;20052;-69
2023/05/05 02:46:49;;;;;;;8.77;4.68;;;;;;;-146.18;100.00;67994.34;10028040;28;20043;-69
2023/05/05 02:51:46;;;;;;;6.63;3.72;;;;;;;-146.18;100.00;67994.34;10040330;28;20086;-67
2023/05/05 02:56:47;;;;;;;9.25;5.03;;;;;;;-146.18;100.00;67994.34;10062973;28;20051;-70
2023/05/05 03:01:52;;;;;;;6.72;4.60;;;;;;;-146.18;100.00;67994.34;10065584;28;20110;-66
2023/05/05 03:06:53;;;;;;;7.15;4.22;;;;;;;-146.18;100.00;67994.34;10066905;28;20074;-70
2023/05/05 03:11:59;;;;;;;10.68;6.13;;;;;;;-146.18;100.00;67994.34;10065927;28;20066;-70
2023/05/05 03:16:56;;;;;;;8.63;5.13;;;;;;;-146.18;100.00;67994.34;10047838;28;20048;-70
2023/05/05 03:21:53;;;;;;;9.50;4.90;;;;;;;-146.18;100.00;67994.34;10027669;28;20795;-70
2023/05/05 03:26:50;;;;;;;7.57;5.00;;;;;;;-146.18;100.00;67994.34;10024639;28;20505;-70
2023/05/05 03:31:46;;;;;;;8.55;5.07;;;;;;;-146.18;100.00;67994.34;10041255;28;20055;-69
2023/05/05 03:36:43;;;;;;;9.18;5.28;;;;;;;-146.18;100.00;67994.34;10067454;28;20066;-68
2023/05/05 03:41:39;;;;;;;8.50;4.80;;;;;;;-146.18;100.00;67994.34;10051985;28;20074;-69
2023/05/05 03:46:36;;;;;;;8.30;4.88;;;;;;;-146.18;100.00;67994.34;10027696;28;20528;-68
2023/05/05 03:51:32;;;;;;;9.88;6.05;;;;;;;-146.18;100.00;67994.34;10020041;28;20135;-67
2023/05/05 03:56:29;;;;;;;8.95;6.15;;;;;;;-146.18;100.00;67994.34;10026811;28;20406;-67
2023/05/05 04:01:25;;;;;;;9.77;6.13;;;;;;;-146.18;100.00;67994.34;10026987;28;20044;-67
2023/05/05 04:06:22;;;;;;;8.00;6.07;;;;;;;-146.18;100.00;67994.34;10018327;28;20083;-69
2023/05/05 04:11:20;;;;;;;11.20;6.97;;;;;;;-146.18;100.00;67994.34;10018251;28;20086;-69
2023/05/05 04:16:16;;;;;;;12.45;6.45;;;;;;;-146.18;100.00;67994.34;10011669;28;20520;-71
2023/05/05 04:21:13;;;;;;;12.60;7.10;;;;;;;-146.18;100.00;67994.34;10030741;28;20044;-71
2023/05/05 04:26:09;;;;;;;11.05;6.53;;;;;;;-146.18;100.00;67994.34;10031581;28;20057;-69
2023/05/05 04:31:06;;;;;;;12.23;6.93;;;;;;;-146.18;100.00;67994.34;10066356;28;20130;-70
2023/05/05 04:36:05;;;;;;;9.18;7.03;;;;;;;-146.18;100.00;67994.34;10060561;28;20051;-74
2023/05/05 04:41:07;;;;;;;14.40;7.40;;;;;;;-146.18;100.00;67994.34;10047531;28;20508;-74
2023/05/05 04:46:03;;;;;;;10.48;6.97;;;;;;;-146.18;100.00;67994.34;10025061;28;20082;-73
2023/05/05 04:51:05;;;;;;;12.98;8.00;;;;;;;-146.18;100.00;67994.34;10020543;28;20145;-71
2023/05/05 04:56:02;;;;;;;11.73;7.47;;;;;;;-146.18;100.00;67994.34;10026040;28;20077;-71
2023/05/05 05:01:00;;;;;;;10.32;7.22;;;;;;;-146.18;100.00;67994.34;10057532;28;20043;-71
2023/05/05 05:05:57;;;;;;;12.20;8.23;;;;;;;-146.18;100.00;67994.34;10064036;28;20552;-71
2023/05/05 05:10:53;;;;;;;17.17;8.20;;;;;;;-146.18;100.00;67994.34;10052392;28;20062;-70
2023/05/05 05:15:50;;;;;;;14.73;8.20;;;;;;;-146.18;100.00;67994.34;10053428;28;20094;-70
2023/05/05 05:20:47;;;;;;;15.00;7.90;;;;;;;-146.18;100.00;67994.34;10046785;23;20056;-65
2023/05/05 05:25:44;;;;;;;13.65;8.20;;;;;;;-146.18;100.00;67994.34;10010942;28;20399;-65
2023/05/05 05:30:41;;;;;;;11.05;7.57;;;;;;;-146.18;100.00;67994.34;10011437;29;20044;-64
2023/05/05 05:35:38;;;;;;;17.73;7.90;;;;;;;-146.18;100.00;67994.34;10013910;29;20079;-64
2023/05/05 05:40:35;;;;;;;12.73;7.80;;;;;;;-146.18;100.00;67994.34;10030178;28;20126;-64
2023/05/05 05:45:31;;;;;;;16.92;8.50;;;;;;;-146.18;100.00;67994.34;10017191;29;20040;-64
2023/05/05 05:50:28;;;;;;;9.90;8.02;;;;;;;-146.18;100.00;67994.34;10014729;28;20496;-64
2023/05/05 05:55:24;;;;;;;12.30;8.30;;;;;;;-146.18;100.00;67994.34;10028093;28;20055;-64
2023/05/05 06:00:21;;;;;;;12.07;7.38;;;;;;;-146.18;100.00;67994.34;10038499;28;20048;-64
2023/05/05 06:05:17;;;;;;;14.27;9.10;;;;;;;-146.18;100.00;67994.34;10030080;29;20126;-65
2023/05/05 06:10:13;;;;;;;9.50;7.10;;;;;;;-146.18;100.00;67994.34;10029722;29;20729;-63
2023/05/05 06:15:24;;;;;;;11.85;8.13;;;;;;;-146.18;100.00;67994.34;10027582;28;20063;-64
2023/05/05 06:20:21;;;;;;;10.13;7.85;;;;;;;-146.18;100.00;67994.34;10032989;29;20486;-64
2023/05/05 06:25:18;;;;;;;8.23;7.43;;;;;;;-146.18;100.00;67994.34;10040581;28;20126;-64
2023/05/05 06:30:14;;;;;;;9.18;7.03;;;;;;;-146.18;100.00;67994.34;9994223;29;20419;-64
2023/05/05 06:35:11;;;;;;;12.32;8.05;;;;;;;-146.18;100.00;67994.34;9995433;29;20056;-64
2023/05/05 06:40:09;;;;;;;14.50;8.68;;;;;;;-146.18;100.00;67994.34;9987693;29;20071;-65
2023/05/05 06:45:06;;;;;;;10.57;7.63;;;;;;;-146.18;100.00;67994.34;9994924;29;20060;-65
2023/05/05 06:50:03;;;;;;;11.75;7.63;;;;;;;-146.18;100.00;67994.34;10021509;28;20553;-65
2023/05/05 06:54:59;;;;;;;11.05;7.80;;;;;;;-146.18;100.00;67994.34;10019352;29;20717;-64
2023/05/05 06:59:56;;;;;;;11.68;7.70;;;;;;;-146.18;100.00;67994.34;10028751;28;20387;-64
2023/05/05 07:04:54;;;;;;;10.38;7.47;;;;;;;-146.18;100.00;67994.34;10031114;28;20087;-66
2023/05/05 07:09:51;;;;;;;11.10;7.18;;;;;;;-146.18;100.00;67994.34;10029965;28;20083;-64
2023/05/05 07:14:47;;;;;;;12.43;8.13;;;;;;;-146.18;100.00;67994.34;10020275;29;20052;-66
2023/05/05 07:19:45;;;;;;;13.32;8.35;;;;;;;-146.18;100.00;67994.34;9984358;28;20048;-66
2023/05/05 07:24:41;;;;;;;12.43;8.30;;;;;;;-146.18;100.00;67994.34;9994203;29;20051;-66
2023/05/05 07:29:37;;;;;;;12.57;7.82;;;;;;;-146.18;100.00;67994.34;9997410;29;20055;-66
2023/05/05 07:34:36;;;;;;;10.27;7.65;;;;;;;-146.18;100.00;67994.34;10020806;29;20548;-65
2023/05/05 07:39:33;;;;;;;10.27;7.50;;;;;;;-146.18;100.00;67994.34;10021132;28;20047;-66
2023/05/05 07:44:30;;;;;;;13.77;8.27;;;;;;;-146.18;100.00;67994.34;10001210;28;20083;-66
2023/05/05 07:49:27;;;;;;;13.57;8.85;;;;;;;-146.18;100.00;67994.34;9979174;29;20036;-66
2023/05/05 07:54:23;;;;;;;17.98;8.38;;;;;;;-146.18;100.00;67994.34;9970388;29;20048;-66
2023/05/05 07:59:20;;;;;;;11.68;8.35;;;;;;;-146.18;100.00;67994.34;9970710;28;20487;-66
2023/05/05 08:04:16;;;;;;;13.00;8.02;;;;;;;-146.18;100.00;67994.34;9972725;28;20051;-67
2023/05/05 08:09:13;;;;;;;11.13;7.57;;;;;;;-146.18;100.00;67994.34;9971010;29;20452;-66
2023/05/05 08:14:10;;;;;;;11.80;7.85;;;;;;;-146.18;100.00;67994.34;9969495;29;20102;-66
2023/05/05 08:19:06;;;;;;;10.98;7.32;;;;;;;-146.18;100.00;67994.34;9979308;28;20431;-66
2023/05/05 08:24:16;;;;;;;14.20;8.32;;;;;;;-146.18;100.00;67994.34;9986075;28;20064;-66
2023/05/05 08:29:13;;;;;;;11.05;7.05;;;;;;;-146.18;100.00;67994.34;9987004;28;20044;-66
2023/05/05 08:34:09;;;;;;;9.45;6.78;;;;;;;-146.18;100.00;67994.34;9984793;28;20072;-66
2023/05/05 08:39:06;;;;;;;9.75;6.90;;;;;;;-146.18;100.00;67994.34;9986485;28;20673;-66
2023/05/05 08:44:02;;;;;;;10.50;7.60;;;;;;;-146.18;100.00;67994.34;10022399;29;20047;-66
2023/05/05 08:49:02;;;;;;;9.02;7.00;;;;;;;-146.18;100.00;67994.34;10028434;28;20044;-66
2023/05/05 08:54:05;;;;;;;10.80;7.70;;;;;;;-146.18;100.00;67994.34;10027377;28;20142;-66
2023/05/05 08:59:03;;;;;;;10.55;7.40;;;;;;;-146.18;100.00;67994.34;10017495;28;20071;-66
2023/05/05 09:03:59;;;;;;;11.43;7.38;;;;;;;-146.18;100.00;67994.34;10037515;28;20062;-66
2023/05/05 09:08:56;;;;;;;12.15;7.53;;;;;;;-146.18;100.00;67994.34;10008943;28;20059;-67
2023/05/05 09:13:55;;;;;;;10.85;6.50;;;;;;;-146.18;100.00;67994.34;9995233;29;20055;-66
2023/05/05 09:19:01;;;;;;;9.75;7.38;;;;;;;-146.18;100.00;67994.34;10001347;29;20052;-66
2023/05/05 09:24:11;;;;;;;13.30;7.03;;;;;;;-146.18;100.00;67994.34;9994970;29;20092;-66
2023/05/05 09:29:08;;;;;;;18.70;7.60;;;;;;;-146.18;100.00;67994.34;9981857;29;20044;-66
2023/05/05 09:34:15;;;;;;;11.52;6.80;;;;;;;-146.18;100.00;67994.34;9982811;29;20135;-66
2023/05/05 09:39:21;;;;;;;12.18;7.68;;;;;;;-146.18;100.00;67994.34;9979308;28;20556;-66
2023/05/05 09:44:32;;;;;;;12.73;7.60;;;;;;;-146.18;100.00;67994.34;10016093;29;20507;-66
2023/05/05 09:49:29;;;;;;;8.95;7.72;;;;;;;-146.18;100.00;67994.34;10015355;29;20989;-66
2023/05/05 09:54:28;;;;;;;11.05;7.13;;;;;;;-146.18;100.00;67994.34;10021041;29;20545;-66
2023/05/05 09:59:24;;;;;;;8.25;6.38;;;;;;;-146.18;100.00;67994.34;10019026;28;20066;-66
2023/05/05 10:04:29;;;;;;;11.95;6.68;;;;;;;-146.18;100.00;67994.34;10017268;28;20130;-66
2023/05/05 10:09:26;;;;;;;10.02;6.65;;;;;;;-146.18;100.00;67994.34;10021381;29;20044;-66
2023/05/05 10:14:23;;;;;;;8.55;6.85;;;;;;;-146.18;100.00;67994.34;10009985;28;20542;-66
2023/05/05 10:19:21;;;;;;;12.60;6.95;;;;;;;-146.18;100.00;67994.34;10013428;28;20138;-67
2023/05/05 10:24:26;;;;;;;14.27;7.22;;;;;;;-146.18;100.00;67994.34;10021423;28;20513;-66
2023/05/05 10:29:35;;;;;;;11.82;6.88;;;;;;;-146.18;100.00;67994.34;9996323;28;20044;-67
2023/05/05 10:34:46;;;;;;;12.98;7.50;;;;;;;-146.18;100.00;67994.34;10036098;29;20150;-67
2023/05/05 10:39:43;;;;;;;10.82;6.97;;;;;;;-146.18;100.00;67994.34;10031188;28;20094;-67
2023/05/05 10:44:41;;;;;;;10.77;8.57;;;;;;;-146.18;100.00;67994.34;10033676;28;20047;-67
2023/05/05 10:49:48;;;;;;;10.77;6.70;;;;;;;-146.18;100.00;67994.34;10029165;28;20052;-66
2023/05/05 10:54:48;;;;;;;8.07;7.15;;;;;;;-146.18;100.00;67994.34;10014484;28;20051;-66
2023/05/05 10:59:46;;;;;;;8.88;6.50;;;;;;;-146.18;100.00;67994.34;10027192;29;20664;-66
2023/05/05 11:04:43;;;;;;;8.65;6.45;;;;;;;-146.18;100.00;67994.34;10020168;28;20538;-66
2023/05/05 11:09:56;;;;;;;9.10;6.88;;;;;;;-146.18;100.00;67994.34;10026463;29;20597;-66
2023/05/05 11:15:26;;;;;;;8.85;6.57;;;;;;;-146.18;100.00;67994.34;10022504;29;20043;-66
2023/05/05 11:20:38;;;;;;;10.60;6.63;;;;;;;-146.18;100.00;67994.34;10030866;28;20051;-67
2023/05/05 11:25:35;;;;;;;9.35;6.82;;;;;;;-146.18;100.00;67994.34;10039785;28;21287;-66
2023/05/05 11:30:33;;;;;;;11.80;6.38;;;;;;;-146.18;100.00;67994.34;10036199;28;20054;-67
2023/05/05 11:35:58;;;;;;;9.25;6.50;;;;;;;-146.18;100.00;67994.34;10023572;29;20081;-67
2023/05/05 11:41:06;;;;;;;9.48;6.55;;;;;;;-146.18;100.00;67994.34;10024211;29;20039;-67
2023/05/05 11:46:13;;;;;;;8.88;6.47;;;;;;;-146.18;100.00;67994.34;10027909;28;20524;-66
2023/05/05 11:51:13;;;;;;;10.05;6.75;;;;;;;-146.18;100.00;67994.34;10029579;28;20830;-66
2023/05/05 11:56:11;;;;;;;9.75;6.28;;;;;;;-146.18;100.00;67994.34;10014042;29;20079;-67
2023/05/05 12:01:08;;;;;;;15.18;8.05;;;;;;;-146.18;100.00;67994.34;10020793;28;20506;-66
2023/05/05 12:06:06;;;;;;;7.68;6.80;;;;;;;-146.18;100.00;67994.34;10020609;28;20143;-67
2023/05/05 12:11:07;;;;;;;9.90;6.97;;;;;;;-146.18;100.00;67994.34;9986476;29;20068;-66
2023/05/05 12:16:21;;;;;;;8.95;7.10;;;;;;;-146.18;100.00;67994.34;9992229;29;20323;-66
2023/05/05 12:21:19;;;;;;;12.65;6.93;;;;;;;-146.18;100.00;67994.34;10021164;28;20055;-67
2023/05/05 12:26:42;;;;;;;9.50;6.45;;;;;;;-146.18;100.00;67994.34;9991610;29;20071;-66
2023/05/05 12:31:40;;;;;;;12.18;6.47;;;;;;;-146.18;100.00;67994.34;9974929;29;20049;-66
2023/05/05 12:36:37;;;;;;;12.32;6.93;;;;;;;-146.18;100.00;67994.34;9998683;29;20048;-66
2023/05/05 12:41:34;;;;;;;8.27;6.75;;;;;;;-146.18;100.00;67994.34;10033558;28;20430;-66
2023/05/05 12:46:43;;;;;;;10.57;6.18;;;;;;;-146.18;100.00;67994.34;10020631;29;20048;-67
2023/05/05 12:51:52;;;;;;;9.75;6.78;;;;;;;-146.18;100.00;67994.34;10018138;28;20047;-66
2023/05/05 12:56:49;;;;;;;11.25;7.20;;;;;;;-146.18;100.00;67994.34;10026088;28;20039;-67
2023/05/05 13:01:51;;;;;;;12.65;6.97;;;;;;;-146.18;100.00;67994.34;10023568;28;20054;-67
2023/05/05 13:07:06;;;;;;;9.13;6.30;;;;;;;-146.18;100.00;67994.34;10033760;28;20099;-66
2023/05/05 13:12:03;;;;;;;7.80;6.22;;;;;;;-146.18;100.00;67994.34;10016004;28;20455;-67
2023/05/05 13:16:59;;;;;;;8.00;7.05;;;;;;;-146.18;100.00;67994.34;9995802;29;20697;-66
2023/05/05 13:21:57;;;;;;;8.88;7.53;;;;;;;-146.18;100.00;67994.34;9980819;29;20052;-67
2023/05/05 13:26:54;;;;;;;10.02;7.25;;;;;;;-146.18;100.00;67994.34;9993254;29;20239;-66
2023/05/05 13:31:51;;;;;;;10.80;8.38;;;;;;;-146.18;100.00;67994.34;9991102;29;20064;-66
2023/05/05 13:36:48;;;;;;;8.55;7.65;;;;;;;-146.18;100.00;67994.34;9986288;28;20066;-67
2023/05/05 13:41:44;;;;;;;13.20;8.90;;;;;;;-146.18;100.00;67994.34;9986798;29;20135;-67
2023/05/05 13:46:41;;;;;;;9.60;7.65;;;;;;;-146.18;100.00;67994.34;9986692;29;20076;-66
2023/05/05 13:51:38;;;;;;;9.27;7.97;;;;;;;-146.18;100.00;67994.34;9995246;29;20785;-67
2023/05/05 13:56:34;;;;;;;10.38;8.45;;;;;;;-146.18;100.00;67994.34;9997945;29;20056;-66
2023/05/05 14:01:31;;;;;;;10.43;8.00;;;;;;;-146.18;100.00;67994.34;9991009;29;20197;-66
2023/05/05 14:06:28;;;;;;;10.57;8.45;;;;;;;-146.18;100.00;67994.34;9995272;28;20044;-66
2023/05/05 14:11:24;;;;;;;11.40;8.55;;;;;;;-146.18;100.00;67994.34;9994044;29;20048;-66
2023/05/05 14:16:21;;;;;;;11.02;8.05;;;;;;;-146.18;100.00;67994.34;9989500;29;20103;-66
2023/05/05 14:21:17;;;;;;;11.45;7.57;;;;;;;-146.18;100.00;67994.34;9999466;29;20055;-66
2023/05/05 14:26:14;;;;;;;11.02;7.68;;;;;;;-146.18;100.00;67994.34;10024724;28;20052;-66
2023/05/05 14:31:10;;;;;;;12.20;8.45;;;;;;;-146.18;100.00;67994.34;10004242;29;20159;-68
2023/05/05 14:36:09;;;;;;;8.98;7.43;;;;;;;-146.18;100.00;67994.34;10028163;28;20048;-66
2023/05/05 14:41:06;;;;;;;9.82;6.65;;;;;;;-146.18;100.00;67994.34;10034690;28;20134;-66
2023/05/05 14:46:05;;;;;;;8.43;7.53;;;;;;;-146.18;100.00;67994.34;10031884;28;20142;-68
2023/05/05 14:51:03;;;;;;;9.18;7.57;;;;;;;-146.18;100.00;67994.34;10043193;28;20422;-67
2023/05/05 14:56:01;;;;;;;10.75;7.13;;;;;;;-146.18;100.00;67994.34;10031967;28;20529;-66
2023/05/05 15:00:57;;;;;;;8.70;6.63;;;;;;;-146.18;100.00;67994.34;10030877;28;20130;-66
2023/05/05 15:05:54;;;;;;;7.97;6.75;;;;;;;-146.18;100.00;67994.34;10027316;28;20058;-66
2023/05/05 15:10:50;;;;;;;7.85;6.97;;;;;;;-146.18;100.00;67994.34;10037682;28;20048;-65
2023/05/05 15:15:47;;;;;;;7.35;6.60;;;;;;;-146.18;100.00;67994.34;10023772;28;20502;-66
2023/05/05 15:20:44;;;;;;;8.18;7.35;;;;;;;-146.18;100.00;67994.34;10017728;28;20048;-65
2023/05/05 15:25:44;;;;;;;12.63;8.43;;;;;;;-146.18;100.00;67994.34;9985139;29;20050;-66
2023/05/05 15:30:40;;;;;;;7.53;6.82;;;;;;;-146.18;100.00;67994.34;10045874;28;20043;-65
2023/05/05 15:35:37;;;;;;;8.18;6.13;;;;;;;-146.18;100.00;67994.34;10032642;28;20122;-66
2023/05/05 15:40:33;;;;;;;7.47;6.65;;;;;;;-146.18;100.00;67994.34;10010947;29;20054;-66
2023/05/05 15:45:29;;;;;;;8.48;6.70;;;;;;;-146.18;100.00;67994.34;10015198;28;20054;-67
2023/05/05 15:50:26;;;;;;;7.60;6.05;;;;;;;-146.18;100.00;67994.34;10017871;28;20510;-67
2023/05/05 15:55:23;;;;;;;10.35;5.70;;;;;;;-146.18;100.00;67994.34;10016633;28;20055;-67
2023/05/05 16:00:19;;;;;;;10.23;6.80;;;;;;;-146.18;100.00;67994.34;10010267;28;20135;-66
2023/05/05 16:05:16;;;;;;;11.60;6.57;;;;;;;-146.18;100.00;67994.34;10032606;28;20491;-67
2023/05/05 16:10:13;;;;;;;9.55;6.78;;;;;;;-146.18;100.00;67994.34;10033238;28;20051;-67
2023/05/05 16:15:10;;;;;;;8.15;6.22;;;;;;;-146.18;100.00;67994.34;10027129;28;20498;-67
2023/05/05 16:20:07;;;;;;;11.63;6.60;;;;;;;-146.18;100.00;67994.34;10017071;29;20055;-66
2023/05/05 16:25:04;;;;;;;7.40;5.90;;;;;;;-146.18;100.00;67994.34;10029526;28;20050;-68
2023/05/05 16:30:00;;;;;;;7.88;6.47;;;;;;;-146.18;100.00;67994.34;10028532;28;20053;-67
2023/05/05 16:34:57;;;;;;;7.65;6.63;;;;;;;-146.18;100.00;67994.34;10027818;28;20047;-67
2023/05/05 16:39:54;;;;;;;10.60;7.63;;;;;;;-146.18;100.00;67994.34;9984198;28;20044;-67
2023/05/05 16:44:50;;;;;;;10.02;7.15;;;;;;;-146.18;100.00;67994.34;9984368;29;20419;-66
2023/05/05 16:49:47;;;;;;;9.90;6.93;;;;;;;-146.18;100.00;67994.34;9989700;29;20104;-66
2023/05/05 16:54:43;;;;;;;8.70;6.63;;;;;;;-146.18;100.00;67994.34;10023297;29;20537;-66
2023/05/05 16:59:40;;;;;;;8.30;7.03;;;;;;;-146.18;100.00;67994.34;10021397;29;20477;-65
2023/05/05 17:04:37;;;;;;;10.50;7.75;;;;;;;-146.18;100.00;67994.34;9988407;28;20051;-66
2023/05/05 17:09:33;;;;;;;11.30;6.88;;;;;;;-146.18;100.00;67994.34;9986736;29;20060;-66
2023/05/05 17:14:30;;;;;;;8.23;6.28;;;;;;;-146.18;100.00;67994.34;9989389;29;20068;-66
2023/05/05 17:19:26;;;;;;;13.55;6.80;;;;;;;-146.18;100.00;67994.34;10022292;29;20035;-66
2023/05/05 17:24:23;;;;;;;8.15;6.68;;;;;;;-146.18;100.00;67994.34;10031100;28;20067;-66
2023/05/05 17:29:21;;;;;;;15.50;6.80;;;;;;;-146.18;100.00;67994.34;9989649;28;20674;-66
2023/05/05 17:34:18;;;;;;;12.48;6.35;;;;;;;-146.18;100.00;67994.34;10033856;29;20506;-66
2023/05/05 17:39:14;;;;;;;8.02;6.28;;;;;;;-146.18;100.00;67994.34;10027533;28;20040;-66
2023/05/05 17:44:11;;;;;;;7.85;7.00;;;;;;;-146.18;100.00;67994.34;10031818;28;20521;-66
2023/05/05 17:49:07;;;;;;;11.02;7.50;;;;;;;-146.18;100.00;67994.34;10049083;28;20481;-66
2023/05/05 17:54:04;;;;;;;8.95;6.53;;;;;;;-146.18;100.00;67994.34;10025968;28;20585;-67
2023/05/05 17:59:01;;;;;;;10.05;6.55;;;;;;;-146.18;100.00;67994.34;10028699;28;20052;-65
2023/05/05 18:03:57;;;;;;;8.55;6.70;;;;;;;-146.18;100.00;67994.34;10022767;28;20390;-64
2023/05/05 18:08:54;;;;;;;8.00;6.57;;;;;;;-146.18;100.00;67994.34;10014392;29;20075;-66
2023/05/05 18:13:50;;;;;;;9.63;6.50;;;;;;;-146.18;100.00;67994.34;10029266;29;20054;-66
2023/05/05 18:18:46;;;;;;;9.25;7.00;;;;;;;-146.18;100.00;67994.34;10025867;28;20546;-66
2023/05/05 18:23:43;;;;;;;7.72;6.93;;;;;;;-146.18;100.00;67994.34;10026862;28;20047;-66
2023/05/05 18:28:39;;;;;;;10.43;7.20;;;;;;;-146.18;100.00;67994.34;9997545;28;20071;-65
2023/05/05 18:33:36;;;;;;;9.05;6.82;;;;;;;-146.18;100.00;67994.34;10004889;29;20114;-65
2023/05/05 18:38:32;;;;;;;9.65;7.63;;;;;;;-146.18;100.00;67994.34;10030629;28;20200;-67
2023/05/05 18:43:29;;;;;;;8.32;7.50;;;;;;;-146.18;100.00;67994.34;10028226;29;20050;-65
2023/05/05 18:48:26;;;;;;;9.90;6.97;;;;;;;-146.18;100.00;67994.34;10023541;28;20081;-66
2023/05/05 18:53:22;;;;;;;11.38;7.93;;;;;;;-146.18;100.00;67994.34;10015982;28;20127;-66
2023/05/05 18:58:19;;;;;;;11.13;8.30;;;;;;;-146.18;100.00;67994.34;10001330;28;20510;-66
2023/05/05 19:03:18;;;;;;;10.55;8.20;;;;;;;-146.18;100.00;67994.34;10014618;29;20051;-66
2023/05/05 19:08:15;;;;;;;8.05;6.80;;;;;;;-146.18;100.00;67994.34;10018118;29;20136;-66
2023/05/05 19:13:11;;;;;;;10.23;7.13;;;;;;;-146.18;100.00;67994.34;10030905;28;20185;-66
2023/05/05 19:18:10;;;;;;;11.05;7.80;;;;;;;-146.18;100.00;67994.34;10002662;28;20044;-66
2023/05/05 19:23:07;;;;;;;13.93;7.00;;;;;;;-146.18;100.00;67994.34;9986356;29;20107;-66
2023/05/05 19:28:03;;;;;;;10.65;7.03;;;;;;;-146.18;100.00;67994.34;10005554;29;20048;-66
2023/05/05 19:33:00;;;;;;;12.27;7.53;;;;;;;-146.18;100.00;67994.34;10017028;28;20126;-66
2023/05/05 19:37:57;;;;;;;10.85;7.32;;;;;;;-146.18;100.00;67994.34;10021862;28;20147;-66
2023/05/05 19:42:53;;;;;;;15.70;7.45;;;;;;;-146.18;100.00;67994.34;10027964;28;20055;-66
2023/05/05 19:47:51;;;;;;;10.48;7.72;;;;;;;-146.18;100.00;67994.34;10038286;28;20047;-66
2023/05/05 19:52:48;;;;;;;12.35;7.25;;;;;;;-146.18;100.00;67994.34;10023053;28;20491;-66
2023/05/05 19:57:47;;;;;;;11.38;7.07;;;;;;;-146.18;100.00;67994.34;10028714;28;20055;-66
2023/05/05 20:02:44;;;;;;;13.35;8.93;;;;;;;-146.18;100.00;67994.34;10026714;29;20138;-66
2023/05/05 20:07:41;;;;;;;9.25;6.93;;;;;;;-146.18;100.00;67994.34;10008490;28;20086;-66
2023/05/05 20:12:38;;;;;;;12.20;7.32;;;;;;;-146.18;100.00;67994.34;9990264;29;20051;-66
2023/05/05 20:17:35;;;;;;;8.30;6.05;;;;;;;-146.18;100.00;67994.34;9990806;29;20451;-65
2023/05/05 20:22:31;;;;;;;12.30;7.57;;;;;;;-146.18;100.00;67994.34;9988789;29;20561;-66
2023/05/05 20:27:28;;;;;;;10.98;7.15;;;;;;;-146.18;100.00;67994.34;9983545;29;20140;-66
2023/05/05 20:32:24;;;;;;;9.00;7.40;;;;;;;-146.18;100.00;67994.34;10007321;29;20494;-66
2023/05/05 20:37:21;;;;;;;9.98;6.65;;;;;;;-146.18;100.00;67994.34;10019431;28;20130;-65
2023/05/05 20:42:17;;;;;;;13.88;7.57;;;;;;;-146.18;100.00;67994.34;10017397;28;20040;-66
2023/05/05 20:47:14;;;;;;;7.72;6.85;;;;;;;-146.18;100.00;67994.34;9980298;29;20134;-65
2023/05/05 20:52:11;;;;;;;10.82;6.88;;;;;;;-146.18;100.00;67994.34;9989081;29;20044;-66
2023/05/05 20:57:07;;;;;;;13.68;7.45;;;;;;;-146.18;100.00;67994.34;10009527;29;20143;-66
2023/05/05 21:02:07;;;;;;;10.48;6.20;;;;;;;-146.18;100.00;67994.34;10017093;28;20052;-65
2023/05/05 21:07:03;;;;;;;12.35;7.40;;;;;;;-146.18;100.00;67994.34;10023914;28;20043;-66
2023/05/05 21:12:01;;;;;;;9.48;6.53;;;;;;;-146.18;100.00;67994.34;10024946;29;20056;-66
2023/05/05 21:16:57;;;;;;;11.85;7.20;;;;;;;-146.18;100.00;67994.34;10029200;28;20069;-66
2023/05/05 21:21:57;;;;;;;13.57;7.18;;;;;;;-146.18;100.00;67994.34;10012104;28;20052;-66
2023/05/05 21:26:55;;;;;;;9.57;8.15;;;;;;;-146.18;100.00;67994.34;9994987;29;20060;-66
2023/05/05 21:31:51;;;;;;;13.20;7.22;;;;;;;-146.18;100.00;67994.34;9997949;28;20175;-66
2023/05/05 21:36:48;;;;;;;11.63;7.07;;;;;;;-146.18;100.00;67994.34;9999716;29;20091;-66
2023/05/05 21:41:44;;;;;;;10.35;7.60;;;;;;;-146.18;100.00;67994.34;10019773;28;20127;-66
2023/05/05 21:46:41;;;;;;;12.18;7.82;;;;;;;-146.18;100.00;67994.34;10022065;28;20471;-72
2023/05/05 21:51:38;;;;;;;12.60;8.18;;;;;;;-146.18;100.00;67994.34;10026232;28;20706;-72
2023/05/05 21:56:35;;;;;;;11.30;8.25;;;;;;;-146.18;100.00;67994.34;10013863;28;20068;-72
2023/05/05 22:01:32;;;;;;;9.23;7.60;;;;;;;-146.18;100.00;67994.34;9977231;29;20078;-71
2023/05/05 22:06:28;;;;;;;11.43;7.95;;;;;;;-146.18;100.00;67994.34;9986888;29;20112;-72
2023/05/05 22:11:25;;;;;;;11.55;6.68;;;;;;;-146.18;100.00;67994.34;9999500;29;20134;-72
2023/05/05 22:16:21;;;;;;;11.40;6.82;;;;;;;-146.18;100.00;67994.34;10023736;28;20055;-73